Time;durP1;ratioP1;P1;durP2;ratioP2;P2;SDS_P1;SDS_P2;PMS_P1;PMS_P2;Temp;Humidity;BMP_temperature;BMP_pressure;BME280_temperature;BME280_humidity;BME280_pressure;Samples;Min_cycle;Max_cycle;Signal;HPM_P1;HPM_P2
2022/07/08 00:02:16;;;;;;;;;0.00;0.00;;;;;-146.67;29.93;75068.94;5043343;28;61989;-83
2022/07/08 00:04:41;;;;;;;;;0.00;0.00;;;;;-146.67;29.57;75076.94;5042402;28;61890;-83
2022/07/08 00:07:07;;;;;;;;;0.00;0.00;;;;;-146.67;29.48;75080.91;5042386;28;61624;-83
2022/07/08 00:09:33;;;;;;;;;0.00;0.00;;;;;-146.67;29.86;75094.91;5057646;28;61940;-83
2022/07/08 00:11:58;;;;;;;;;0.00;0.00;;;;;-146.67;29.58;75094.91;5054554;28;62133;-83
2022/07/08 00:14:23;;;;;;;;;0.00;0.00;;;;;-146.67;29.72;75098.88;5062159;28;63152;-83
2022/07/08 00:16:50;;;;;;;;;0.00;0.00;;;;;-146.67;29.63;75104.88;5061529;28;62020;-83
2022/07/08 00:19:19;;;;;;;;;0.00;0.00;;;;;-146.67;29.95;75110.88;5063039;28;62038;-83
2022/07/08 00:21:45;;;;;;;;;0.00;0.00;;;;;-146.67;29.97;75106.88;5062981;28;61735;-83
2022/07/08 00:24:12;;;;;;;;;0.00;0.00;;;;;-146.67;29.68;75110.88;5060968;28;63151;-83
2022/07/08 00:26:38;;;;;;;;;0.00;0.00;;;;;-146.67;29.73;75120.84;5062675;28;61916;-83
2022/07/08 00:29:05;;;;;;;;;0.00;0.00;;;;;-146.67;30.07;75126.84;5062595;28;61930;-83
2022/07/08 00:31:30;;;;;;;;;0.00;0.00;;;;;-146.67;29.91;75140.81;5078600;28;61952;-83
2022/07/08 00:33:56;;;;;;;;;0.00;0.00;;;;;-146.67;30.12;75130.84;5061941;28;61910;-83
2022/07/08 00:36:22;;;;;;;;;0.00;0.00;;;;;-146.67;29.86;75134.81;5062697;28;62446;-83
2022/07/08 00:38:48;;;;;;;;;0.00;0.00;;;;;-146.67;29.78;75130.84;5040421;28;61936;-83
2022/07/08 00:41:14;;;;;;;;;0.00;0.00;;;;;-146.67;29.89;75130.84;5041163;28;61770;-83
2022/07/08 00:43:42;;;;;;;;;0.00;0.00;;;;;-146.67;29.77;75132.84;5041648;28;63727;-83
2022/07/08 00:46:08;;;;;;;;;0.00;0.00;;;;;-146.67;29.82;75134.81;5041099;28;61920;-83
2022/07/08 00:48:34;;;;;;;;;0.00;0.00;;;;;-146.67;30.13;75144.81;5042439;28;61853;-83
2022/07/08 00:51:03;;;;;;;;;0.00;0.00;;;;;-146.67;30.14;75162.78;5041046;28;61995;-83
2022/07/08 00:53:30;;;;;;;;;0.00;0.00;;;;;-146.67;29.80;75170.78;5040588;28;61758;-83
2022/07/08 00:55:57;;;;;;;;;0.00;0.00;;;;;-146.67;30.13;75182.75;5040435;28;62237;-83
2022/07/08 00:58:24;;;;;;;;;0.00;0.00;;;;;-146.67;29.95;75192.75;5042439;28;61719;-83
2022/07/08 01:00:51;;;;;;;;;0.00;0.00;;;;;-146.67;30.27;75206.72;5042551;28;61827;-83
2022/07/08 01:03:17;;;;;;;;;0.00;0.00;;;;;-146.67;30.03;75204.72;5041183;28;62830;-83
2022/07/08 01:05:43;;;;;;;;;0.00;0.00;;;;;-146.67;30.06;75210.72;5041994;28;62014;-83
2022/07/08 01:08:08;;;;;;;;;0.00;0.00;;;;;-146.67;30.34;75210.72;5041722;28;62024;-83
2022/07/08 01:10:34;;;;;;;;;0.00;0.00;;;;;-146.67;30.16;75224.69;5042621;28;62313;-83
2022/07/08 01:12:59;;;;;;;;;0.00;0.00;;;;;-146.67;30.28;75228.69;5060282;28;62929;-83
2022/07/08 01:15:25;;;;;;;;;0.00;0.00;;;;;-146.67;30.23;75234.66;5062069;28;62006;-83
2022/07/08 01:17:51;;;;;;;;;0.00;0.00;;;;;-146.67;30.25;75238.66;5062095;28;61968;-83
2022/07/08 01:20:16;;;;;;;;;0.00;0.00;;;;;-146.67;30.49;75244.66;5060779;28;61793;-83
2022/07/08 01:22:42;;;;;;;;;0.00;0.00;;;;;-146.67;30.23;75252.66;5060277;28;61698;-83
2022/07/08 01:25:09;;;;;;;;;0.00;0.00;;;;;-146.67;30.37;75264.63;5061327;28;61795;-83
2022/07/08 01:27:35;;;;;;;;;0.00;0.00;;;;;-146.67;30.44;75276.59;5062214;28;61856;-83
2022/07/08 01:30:02;;;;;;;;;0.00;0.00;;;;;-146.67;30.57;75286.59;5065755;28;61996;-83
2022/07/08 01:32:35;;;;;;;;;0.00;0.00;;;;;-146.67;30.28;75300.56;5064890;28;63299;-83
2022/07/08 01:35:01;;;;;;;;;0.00;0.00;;;;;-146.67;30.37;75310.56;5081003;28;61775;-83
2022/07/08 01:37:26;;;;;;;;;0.00;0.00;;;;;-146.67;30.54;75304.56;5055965;28;61752;-83
2022/07/08 01:39:52;;;;;;;;;0.00;0.00;;;;;-146.67;30.52;75308.56;5044989;28;61849;-83
2022/07/08 01:42:18;;;;;;;;;0.00;0.00;;;;;-146.67;30.47;75304.56;5045803;28;61778;-82
2022/07/08 01:44:43;;;;;;;;;0.00;0.00;;;;;-146.67;30.28;75308.56;5049662;28;62150;-83
2022/07/08 01:47:09;;;;;;;;;0.00;0.00;;;;;-146.67;30.32;75310.56;5044627;28;61924;-83
2022/07/08 01:49:34;;;;;;;;;0.00;0.00;;;;;-146.67;30.20;75300.56;5045356;28;61845;-83
2022/07/08 01:52:00;;;;;;;;;0.00;0.00;;;;;-146.67;30.32;75308.56;5044179;28;61925;-83
2022/07/08 01:54:26;;;;;;;;;0.00;0.00;;;;;-146.67;29.88;75296.56;5043964;28;62275;-83
2022/07/08 01:57:13;;;;;;;;;0.00;0.00;;;;;-146.67;30.51;75304.56;5060704;28;62015;-83
2022/07/08 01:59:37;;;;;;;;;0.00;0.00;;;;;-146.67;30.29;75298.56;5045073;28;61740;-83
2022/07/08 02:02:03;;;;;;;;;0.00;0.00;;;;;-146.67;30.29;75302.56;5044274;28;62898;-83
2022/07/08 02:04:29;;;;;;;;;0.00;0.00;;;;;-146.67;30.33;75290.59;5060074;28;61693;-83
2022/07/08 02:06:54;;;;;;;;;0.00;0.00;;;;;-146.67;30.23;75306.56;5044648;28;61738;-83
2022/07/08 02:09:20;;;;;;;;;0.00;0.00;;;;;-146.67;30.09;75304.56;5043453;28;62733;-83
2022/07/08 02:14:29;;;;;;;;;0.00;0.00;;;;;-146.67;30.14;75292.56;5064603;28;61863;-83
2022/07/08 02:16:55;;;;;;;;;0.00;0.00;;;;;-146.67;30.29;75298.56;5064974;28;61920;-82
2022/07/08 02:19:20;;;;;;;;;0.00;0.00;;;;;-146.67;30.23;75302.56;5064886;28;61706;-83
2022/07/08 02:21:46;;;;;;;;;0.00;0.00;;;;;-146.67;30.49;75304.56;5062308;28;64517;-83
2022/07/08 02:24:11;;;;;;;;;0.00;0.00;;;;;-146.67;30.32;75304.56;5062307;28;62073;-83
2022/07/08 02:26:37;;;;;;;;;0.00;0.00;;;;;-146.67;30.29;75294.56;5064449;28;61936;-83
2022/07/08 02:29:02;;;;;;;;;0.00;0.00;;;;;-146.67;30.40;75296.56;5064767;28;62015;-83
2022/07/08 02:31:27;;;;;;;;;0.00;0.00;;;;;-146.67;30.40;75304.56;5062307;28;63757;-82
2022/07/08 02:33:53;;;;;;;;;0.00;0.00;;;;;-146.67;30.57;75302.56;5062981;28;61918;-82
2022/07/08 02:36:18;;;;;;;;;0.00;0.00;;;;;-146.67;30.66;75304.56;5062542;28;62111;-83
2022/07/08 02:38:44;;;;;;;;;0.00;0.00;;;;;-146.67;30.51;75300.56;5044157;28;61921;-83
2022/07/08 02:41:09;;;;;;;;;0.00;0.00;;;;;-146.67;30.27;75300.56;5058305;28;64715;-83
2022/07/08 02:43:35;;;;;;;;;0.00;0.00;;;;;-146.67;30.65;75298.56;5043667;28;61900;-83
2022/07/08 02:46:00;;;;;;;;;0.00;0.00;;;;;-146.67;30.49;75300.56;5044383;28;61724;-83
2022/07/08 02:48:25;;;;;;;;;0.00;0.00;;;;;-146.67;30.50;75300.56;5044317;28;62014;-83
2022/07/08 02:50:51;;;;;;;;;0.00;0.00;;;;;-146.67;30.71;75298.56;5043189;28;61825;-83
2022/07/08 02:53:16;;;;;;;;;0.00;0.00;;;;;-146.67;30.57;75298.56;5043764;28;62016;-83
2022/07/08 02:55:42;;;;;;;;;0.00;0.00;;;;;-146.67;30.33;75294.56;5043562;28;61883;-83
2022/07/08 02:58:07;;;;;;;;;0.00;0.00;;;;;-146.67;30.63;75298.56;5043605;28;62117;-83
2022/07/08 03:00:33;;;;;;;;;0.00;0.00;;;;;-146.67;30.77;75308.56;5041874;28;65160;-83
2022/07/08 03:02:58;;;;;;;;;0.00;0.00;;;;;-146.67;30.60;75310.56;5044019;28;61719;-83
2022/07/08 03:05:24;;;;;;;;;0.00;0.00;;;;;-146.67;30.74;75314.53;5058632;28;62181;-83
2022/07/08 03:07:49;;;;;;;;;0.00;0.00;;;;;-146.67;30.72;75318.53;5044089;28;61676;-83
2022/07/08 03:10:15;;;;;;;;;0.00;0.00;;;;;-146.67;30.76;75324.53;5042894;28;62760;-83
2022/07/08 03:12:40;;;;;;;;;0.00;0.00;;;;;-146.67;30.88;75334.50;5060571;28;61722;-82
2022/07/08 03:15:06;;;;;;;;;0.00;0.00;;;;;-146.67;30.75;75342.50;5062473;28;61813;-82
2022/07/08 03:17:32;;;;;;;;;0.00;0.00;;;;;-146.67;31.00;75344.50;5062330;28;61976;-83
2022/07/08 03:19:57;;;;;;;;;0.00;0.00;;;;;-146.67;30.73;75340.50;5062780;28;62136;-83
2022/07/08 03:22:23;;;;;;;;;0.00;0.00;;;;;-146.67;30.85;75350.50;5063944;28;62264;-83
2022/07/08 03:24:48;;;;;;;;;0.00;0.00;;;;;-146.67;30.70;75354.47;5062533;28;61793;-83
2022/07/08 03:27:13;;;;;;;;;0.00;0.00;;;;;-146.67;30.75;75356.47;5063910;28;61859;-83
2022/07/08 03:29:39;;;;;;;;;0.00;0.00;;;;;-146.67;30.91;75364.47;5062647;28;62226;-83
2022/07/08 03:32:04;;;;;;;;;0.00;0.00;;;;;-146.67;31.03;75376.44;5063644;28;61832;-83
2022/07/08 03:34:30;;;;;;;;;0.00;0.00;;;;;-146.67;30.95;75378.44;5063016;28;61873;-83
2022/07/08 03:36:55;;;;;;;;;0.00;0.00;;;;;-146.67;31.00;75374.44;5058940;28;61967;-83
2022/07/08 03:39:21;;;;;;;;;0.00;0.00;;;;;-146.67;30.88;75376.44;5042467;28;62065;-83
2022/07/08 03:41:46;;;;;;;;;0.00;0.00;;;;;-146.67;31.14;75384.44;5043185;28;61991;-83
2022/07/08 03:44:11;;;;;;;;;0.00;0.00;;;;;-146.67;31.22;75386.44;5043188;28;62050;-83
2022/07/08 03:46:37;;;;;;;;;0.00;0.00;;;;;-146.67;31.14;75384.44;5058833;28;62236;-83
2022/07/08 03:49:02;;;;;;;;;0.00;0.00;;;;;-146.67;31.20;75380.44;5042135;28;62078;-83
2022/07/08 03:51:28;;;;;;;;;0.00;0.00;;;;;-146.67;31.00;75384.44;5042844;28;61853;-83
2022/07/08 03:53:53;;;;;;;;;0.67;0.33;;;;;-146.67;30.98;75380.44;5042059;28;62142;-83
2022/07/08 03:56:19;;;;;;;;;0.00;0.00;;;;;-146.67;30.99;75372.44;5058645;28;62000;-83
2022/07/08 03:58:44;;;;;;;;;0.00;0.00;;;;;-146.67;30.88;75382.44;5042364;28;63170;-83
2022/07/08 04:01:10;;;;;;;;;0.00;0.00;;;;;-146.67;30.99;75394.41;5043184;28;61642;-83
2022/07/08 04:03:35;;;;;;;;;0.00;0.00;;;;;-146.67;31.04;75394.41;5042357;28;61812;-82
2022/07/08 04:06:01;;;;;;;;;0.00;0.00;;;;;-146.67;30.81;75390.44;5041909;28;61842;-83
2022/07/08 04:08:26;;;;;;;;;0.00;0.00;;;;;-146.67;31.19;75414.38;5042122;28;61813;-83
2022/07/08 04:10:52;;;;;;;;;0.00;0.00;;;;;-146.67;31.21;75430.38;5045523;28;61822;-83
2022/07/08 04:13:17;;;;;;;;;0.00;0.00;;;;;-146.67;31.34;75446.34;5061533;28;61896;-83
2022/07/08 04:15:43;;;;;;;;;2.33;2.00;;;;;-146.67;31.75;75448.34;5062387;28;62199;-82
2022/07/08 04:18:08;;;;;;;;;0.00;0.00;;;;;-146.67;31.57;75450.34;5062013;28;62017;-83
2022/07/08 04:20:34;;;;;;;;;0.00;0.00;;;;;-146.67;31.73;75442.34;5062741;28;62020;-83
2022/07/08 04:22:59;;;;;;;;;0.00;0.00;;;;;-146.67;31.46;75434.34;5062386;28;61848;-83
2022/07/08 04:25:24;;;;;;;;;0.00;0.00;;;;;-146.67;31.70;75438.34;5062360;28;61725;-83
2022/07/08 04:27:50;;;;;;;;;0.00;0.00;;;;;-146.67;31.60;75436.34;5061910;28;61762;-83
2022/07/08 04:30:16;;;;;;;;;0.00;0.00;;;;;-146.67;31.51;75426.38;5062849;28;61683;-83
2022/07/08 04:32:41;;;;;;;;;0.00;0.00;;;;;-146.67;31.53;75424.38;5062272;28;61952;-83
2022/07/08 04:35:07;;;;;;;;;0.00;0.00;;;;;-146.67;31.37;75422.38;5062742;28;61850;-83
2022/07/08 04:37:32;;;;;;;;;0.00;0.00;;;;;-146.67;31.31;75416.38;5050679;28;63822;-83
2022/07/08 04:39:58;;;;;;;;;0.00;0.00;;;;;-146.67;31.41;75422.38;5042110;28;61841;-83
2022/07/08 04:42:24;;;;;;;;;0.00;0.00;;;;;-146.67;31.37;75420.38;5041322;28;61867;-83
2022/07/08 04:44:50;;;;;;;;;0.00;0.00;;;;;-146.67;31.29;75422.38;5041971;28;62020;-83
2022/07/08 04:47:16;;;;;;;;;0.00;0.00;;;;;-146.67;31.17;75408.41;5040601;28;63597;-82
2022/07/08 04:49:41;;;;;;;;;0.00;0.00;;;;;-146.67;31.23;75410.41;5042386;28;61825;-83
2022/07/08 04:52:06;;;;;;;;;0.00;0.00;;;;;-146.67;31.05;75404.41;5040969;28;61802;-83
2022/07/08 04:54:37;;;;;;;;;0.33;0.00;;;;;-146.67;31.10;75398.41;5040002;28;61819;-83
2022/07/08 04:57:04;;;;;;;;;0.00;0.00;;;;;-146.67;31.16;75400.41;5041616;28;62086;-83
2022/07/08 04:59:29;;;;;;;;;0.00;0.00;;;;;-146.67;30.97;75402.41;5041950;28;61898;-83
2022/07/08 05:01:55;;;;;;;;;0.00;0.00;;;;;-146.67;31.33;75412.38;5041876;28;62117;-83
2022/07/08 05:04:20;;;;;;;;;0.00;0.00;;;;;-146.67;31.16;75410.41;5044118;28;61850;-83
2022/07/08 05:06:47;;;;;;;;;0.00;0.00;;;;;-146.67;31.14;75402.41;5043874;28;63678;-83
2022/07/08 05:09:13;;;;;;;;;0.00;0.00;;;;;-146.67;31.28;75402.41;5044046;28;61924;-83
2022/07/08 05:11:38;;;;;;;;;0.00;0.00;;;;;-146.67;31.17;75396.41;5054984;28;61969;-83
2022/07/08 05:14:05;;;;;;;;;0.00;0.00;;;;;-146.67;31.33;75398.41;5063399;28;61936;-83
2022/07/08 05:16:31;;;;;;;;;2.00;2.00;;;;;-146.67;31.07;75394.41;5064776;28;61974;-89
2022/07/08 05:18:56;;;;;;;;;0.00;0.00;;;;;-146.67;31.05;75400.41;5064682;28;61832;-93
2022/07/08 05:21:22;;;;;;;;;0.00;0.00;;;;;-146.67;31.03;75404.41;5066105;28;62380;-88
2022/07/08 05:23:47;;;;;;;;;0.00;0.00;;;;;-146.67;30.97;75392.41;5064799;28;61728;-85
2022/07/08 05:26:13;;;;;;;;;0.00;0.00;;;;;-146.67;30.90;75392.41;5063346;28;64954;-84
2022/07/08 05:28:38;;;;;;;;;0.00;0.00;;;;;-146.67;30.89;75390.44;5065114;28;61746;-83
2022/07/08 05:31:04;;;;;;;;;0.00;0.00;;;;;-146.67;31.27;75382.44;5065357;28;61751;-88
2022/07/08 05:33:29;;;;;;;;;0.00;0.00;;;;;-146.67;30.66;75362.47;5065253;28;61968;-85
2022/07/08 05:35:55;;;;;;;;;0.00;0.00;;;;;-146.67;30.70;75344.50;5064475;28;62801;-85
2022/07/08 05:38:20;;;;;;;;;0.00;0.00;;;;;-146.67;30.39;75308.56;5048582;28;61880;-91
2022/07/08 05:40:46;;;;;;;;;0.00;0.00;;;;;-146.67;30.18;75266.63;5063067;28;61995;-83
2022/07/08 05:43:11;;;;;;;;;0.00;0.00;;;;;-146.67;29.76;75198.72;5064829;28;61827;-80
2022/07/08 05:45:36;;;;;;;;;0.00;0.00;;;;;-146.67;29.01;75092.91;5063109;28;63823;-81
2022/07/08 05:48:02;;;;;;;;;0.00;0.00;;;;;-146.67;28.66;75009.03;5065255;28;61891;-81
2022/07/08 05:50:27;;;;;;;;;0.00;0.00;;;;;-146.67;27.96;74937.16;5063764;28;61798;-82
2022/07/08 05:52:53;;;;;;;;;0.00;0.00;;;;;-146.67;27.59;74879.25;5064979;28;62172;-81
2022/07/08 05:55:18;;;;;;;;;0.00;0.00;;;;;-146.67;27.62;74859.28;5063761;28;62101;-81
2022/07/08 05:57:44;;;;;;;;;0.00;0.00;;;;;-146.67;27.62;74889.22;5063940;28;62006;-81
2022/07/08 06:00:10;;;;;;;;;0.00;0.00;;;;;-146.67;27.25;74807.38;5065312;28;63219;-82
2022/07/08 06:02:37;;;;;;;;;0.00;0.00;;;;;-146.67;27.17;74801.38;5062799;28;61929;-83
2022/07/08 06:05:02;;;;;;;;;0.00;0.00;;;;;-146.67;27.42;74801.38;5067053;27;62692;-84
2022/07/08 06:07:28;;;;;;;;;0.00;0.00;;;;;-146.67;27.32;74823.34;5074704;28;61978;-84
2022/07/08 06:09:53;;;;;;;;;0.00;0.00;;;;;-146.67;27.32;74841.31;5075399;27;62113;-83
2022/07/08 06:12:19;;;;;;;;;0.00;0.00;;;;;-146.67;27.50;74863.28;5063897;27;61722;-83
2022/07/08 06:14:44;;;;;;;;;0.00;0.00;;;;;-146.67;27.65;74871.25;5063289;28;61797;-82
2022/07/08 06:17:11;;;;;;;;;0.00;0.00;;;;;-146.67;27.46;74871.25;5062947;28;61904;-84
2022/07/08 06:19:38;;;;;;;;;0.00;0.00;;;;;-146.67;27.59;74867.28;5064628;28;61792;-85
2022/07/08 06:22:03;;;;;;;;;0.00;0.00;;;;;-146.67;27.48;74865.28;5064767;28;62371;-84
2022/07/08 06:24:29;;;;;;;;;0.00;0.00;;;;;-146.67;27.45;74853.28;5062832;28;61991;-82
2022/07/08 06:26:54;;;;;;;;;0.00;0.00;;;;;-146.67;27.26;74821.34;5063989;28;61902;-81
2022/07/08 06:29:20;;;;;;;;;0.00;0.00;;;;;-146.67;26.91;74743.47;5063024;28;62122;-82
2022/07/08 06:31:45;;;;;;;;;0.00;0.00;;;;;-146.67;26.33;74635.66;5072080;28;61883;-81
2022/07/08 06:34:12;;;;;;;;;0.00;0.00;;;;;-146.67;26.04;74615.72;5074671;27;62633;-81
2022/07/08 06:36:38;;;;;;;;;0.00;0.00;;;;;-146.67;25.92;74613.72;5071527;28;62022;-81
2022/07/08 06:39:03;;;;;;;;;0.00;0.00;;;;;-146.67;25.62;74585.75;5075121;28;61956;-81
2022/07/08 06:41:29;;;;;;;;;0.00;0.00;;;;;-146.67;26.03;74625.69;5070554;28;61792;-81
2022/07/08 06:43:55;;;;;;;;;0.00;0.00;;;;;-146.67;25.93;74675.59;5064837;28;63646;-81
2022/07/08 06:46:20;;;;;;;;;0.00;0.00;;;;;-146.67;26.34;74723.50;5062604;28;62036;-81
2022/07/08 06:48:46;;;;;;;;;0.00;0.00;;;;;-146.67;26.32;74753.47;5063834;28;61947;-81
2022/07/08 06:51:11;;;;;;;;;0.00;0.00;;;;;-146.67;26.86;74785.41;5064181;28;61889;-82
2022/07/08 06:56:22;;;;;;;;;0.00;0.00;;;;;-146.67;26.87;74817.34;5063460;28;61838;-82
2022/07/08 06:58:47;;;;;;;;;0.00;0.00;;;;;-146.67;26.76;74827.34;5063707;28;62105;-82
2022/07/08 07:01:12;;;;;;;;;0.00;0.00;;;;;-146.67;27.20;74851.31;5064241;28;62018;-81
2022/07/08 07:03:39;;;;;;;;;0.00;0.00;;;;;-146.67;27.11;74873.25;5061994;28;63591;-81
2022/07/08 07:06:05;;;;;;;;;0.00;0.00;;;;;-146.67;27.13;74873.25;5062549;28;61931;-82
2022/07/08 07:08:30;;;;;;;;;0.00;0.00;;;;;-146.67;27.15;74887.25;5062415;28;61929;-82
2022/07/08 07:10:56;;;;;;;;;0.00;0.00;;;;;-146.67;26.97;74893.22;5061808;28;62280;-82
2022/07/08 07:13:21;;;;;;;;;0.00;0.00;;;;;-146.67;27.16;74895.22;5061541;28;63353;-81
2022/07/08 07:15:46;;;;;;;;;0.00;0.00;;;;;-146.67;27.26;74887.25;5079363;28;61891;-82
2022/07/08 07:40:55;;;;;;;;;2.50;1.00;;;;;-146.67;28.89;75266.63;5092557;27;62479;-78
2022/07/08 07:43:21;;;;;;;;;4.33;1.00;;;;;-146.67;29.04;75242.66;5096346;27;61968;-76
2022/07/08 07:45:47;;;;;;;;;0.00;0.00;;;;;-146.67;28.70;75232.69;5077894;27;61975;-76
2022/07/08 07:48:12;;;;;;;;;2.25;0.75;;;;;-146.67;28.61;75236.66;5095575;27;62876;-76
2022/07/08 07:50:38;;;;;;;;;1.25;1.00;;;;;-146.67;28.98;75258.63;5096604;27;61903;-77
2022/07/08 07:53:03;;;;;;;;;3.75;0.75;;;;;-146.67;28.77;75254.63;5078360;27;62174;-76
2022/07/08 07:55:29;;;;;;;;;1.75;1.00;;;;;-146.67;29.07;75272.59;5075616;27;62039;-78
2022/07/08 07:57:55;;;;;;;;;0.75;0.00;;;;;-146.67;29.38;75274.59;5077744;27;65082;-78
2022/07/08 08:00:20;;;;;;;;;4.00;2.00;;;;;-146.67;29.41;75276.59;5078425;27;62408;-78
2022/07/08 08:02:46;;;;;;;;;2.50;1.00;;;;;-146.67;29.16;75282.59;5079206;27;61834;-78
2022/07/08 08:05:12;;;;;;;;;2.50;2.00;;;;;-146.67;29.49;75290.59;5078361;27;61871;-78
2022/07/08 08:07:41;;;;;;;;;2.75;2.00;;;;;-146.67;29.37;75290.59;5096202;27;61903;-79
2022/07/08 08:10:08;;;;;;;;;1.50;1.50;;;;;-146.67;29.44;75294.56;5097604;27;62048;-79
2022/07/08 08:12:34;;;;;;;;;3.50;2.25;;;;;-146.67;29.80;75296.56;5097279;27;62056;-79
2022/07/08 08:15:02;;;;;;;;;3.00;1.00;;;;;-146.67;30.00;75286.59;5079788;27;62144;-79
2022/07/08 08:17:27;;;;;;;;;2.50;2.25;;;;;-146.67;29.59;75290.59;5098282;27;61970;-79
2022/07/08 08:19:53;;;;;;;;;1.50;1.25;;;;;-146.67;29.60;75290.59;5080498;27;62064;-79
2022/07/08 08:22:18;;;;;;;;;5.75;1.50;;;;;-146.67;29.53;75282.59;5080363;27;61996;-79
2022/07/08 08:24:44;;;;;;;;;7.00;3.00;;;;;-146.67;29.15;75298.56;5099000;27;61868;-79
2022/07/08 08:27:09;;;;;;;;;5.25;2.00;;;;;-146.67;29.72;75302.56;5097241;27;62016;-78
2022/07/08 08:29:35;;;;;;;;;3.25;2.75;;;;;-146.67;29.46;75296.56;5079238;27;62180;-78
2022/07/08 08:32:00;;;;;;;;;5.00;3.75;;;;;-146.67;29.58;75300.56;5077824;27;62290;-78
2022/07/08 08:34:26;;;;;;;;;3.75;2.25;;;;;-146.67;29.56;75294.56;5080629;27;62053;-79
2022/07/08 08:36:52;;;;;;;;;2.00;2.00;;;;;-146.67;29.61;75296.56;5098814;27;62888;-79
2022/07/08 08:39:17;;;;;;;;;4.50;3.25;;;;;-146.67;29.52;75288.59;5068784;27;62056;-78
2022/07/08 08:41:43;;;;;;;;;5.25;3.00;;;;;-146.67;29.45;75286.59;5064960;28;61755;-78
2022/07/08 08:44:09;;;;;;;;;2.75;2.25;;;;;-146.67;29.38;75280.59;5064793;28;61767;-78
2022/07/08 08:46:36;;;;;;;;;2.00;2.00;;;;;-146.67;29.17;75286.59;5075321;28;61949;-78
2022/07/08 08:49:03;;;;;;;;;7.50;3.75;;;;;-146.67;29.33;75272.59;5063956;28;62007;-77
2022/07/08 08:51:34;;;;;;;;;4.50;3.50;;;;;-146.67;29.41;75272.59;5082836;27;61880;-78
2022/07/08 08:54:03;;;;;;;;;4.50;3.75;;;;;-146.67;28.90;75272.59;5083490;27;62200;-78
2022/07/08 08:56:29;;;;;;;;;4.00;3.25;;;;;-146.67;29.21;75268.63;5063860;28;63951;-77
2022/07/08 08:58:54;;;;;;;;;3.50;3.50;;;;;-146.67;29.45;75264.63;5081195;28;61759;-78
2022/07/08 09:01:21;;;;;;;;;3.00;3.00;;;;;-146.67;29.30;75256.63;5081656;28;61751;-78
2022/07/08 09:03:47;;;;;;;;;6.50;3.75;;;;;-146.67;29.15;75252.66;5084214;27;61757;-80
2022/07/08 09:06:13;;;;;;;;;5.25;4.50;;;;;-146.67;29.16;75252.66;5066073;28;63520;-80
2022/07/08 09:08:39;;;;;;;;;8.50;4.50;;;;;-146.67;29.05;75250.66;5065462;28;61955;-80
2022/07/08 09:11:05;;;;;;;;;3.00;3.00;;;;;-146.67;29.24;75256.63;5084372;28;61843;-78
2022/07/08 09:13:31;;;;;;;;;2.75;2.50;;;;;-146.67;29.40;75242.66;5083882;28;61995;-78
2022/07/08 09:15:58;;;;;;;;;3.75;3.75;;;;;-146.67;29.51;75236.66;5083239;27;61917;-78
2022/07/08 09:18:35;;;;;;;;;3.50;3.50;;;;;-146.67;29.02;75240.66;5083806;28;61817;-78
2022/07/08 09:21:02;;;;;;;;;5.00;5.00;;;;;-146.67;29.44;75234.66;5065551;27;62028;-78
2022/07/08 09:23:33;;;;;;;;;4.25;4.25;;;;;-146.67;29.38;75222.69;5084082;28;62167;-78
2022/07/08 09:26:00;;;;;;;;;6.00;3.25;;;;;-146.67;29.00;75222.69;5081853;28;61778;-77
2022/07/08 09:28:38;;;;;;;;;7.00;3.00;;;;;-146.67;28.89;75226.69;5062170;28;61954;-78
2022/07/08 09:31:12;;;;;;;;;4.00;4.00;;;;;-146.67;29.33;75202.72;5083387;27;61768;-78
2022/07/08 09:33:38;;;;;;;;;4.75;4.00;;;;;-146.67;28.81;75200.72;5063224;28;61849;-79
2022/07/08 09:36:05;;;;;;;;;2.50;2.50;;;;;-146.67;29.18;75200.72;5064901;28;63490;-79
2022/07/08 09:38:35;;;;;;;;;5.00;3.00;;;;;-146.67;29.03;75196.72;5083698;27;62191;-78
2022/07/08 09:41:04;;;;;;;;;5.00;3.00;;;;;-146.67;28.95;75194.72;5083848;27;61867;-78
2022/07/08 09:43:31;;;;;;;;;5.25;4.00;;;;;-146.67;28.44;75178.75;5062819;28;61944;-78
2022/07/08 09:46:04;;;;;;;;;2.75;2.75;;;;;-146.67;28.54;75166.78;5064674;28;63620;-78
2022/07/08 09:48:30;;;;;;;;;3.50;3.25;;;;;-146.67;29.18;75162.78;5062870;28;61943;-78
2022/07/08 09:50:55;;;;;;;;;9.25;3.00;;;;;-146.67;28.92;75156.78;5064214;28;61740;-78
2022/07/08 09:53:23;;;;;;;;;5.00;4.00;;;;;-146.67;28.57;75162.78;5084011;28;61845;-78
2022/07/08 09:55:53;;;;;;;;;6.00;3.25;;;;;-146.67;28.48;75160.78;5080545;28;62950;-78
2022/07/08 09:58:20;;;;;;;;;4.50;3.50;;;;;-146.67;28.54;75162.78;5082699;28;61808;-78
2022/07/08 10:00:48;;;;;;;;;4.00;3.00;;;;;-146.67;28.41;75142.81;5064814;28;61930;-78
2022/07/08 10:03:13;;;;;;;;;4.00;3.00;;;;;-146.67;28.47;75132.84;5083031;27;61718;-78
2022/07/08 10:05:40;;;;;;;;;5.25;4.00;;;;;-146.67;28.14;75116.84;5081776;27;62015;-79
2022/07/08 10:08:06;;;;;;;;;5.00;3.00;;;;;-146.67;28.53;75108.88;5082115;28;61825;-78
2022/07/08 10:10:33;;;;;;;;;5.75;4.00;;;;;-146.67;28.01;75098.88;5063399;28;61965;-78
2022/07/08 10:12:59;;;;;;;;;4.75;3.50;;;;;-146.67;27.93;75110.88;5081070;27;61837;-79
2022/07/08 10:15:26;;;;;;;;;2.25;2.25;;;;;-146.67;28.13;75092.91;5082610;28;62429;-79
2022/07/08 10:17:53;;;;;;;;;8.25;5.00;;;;;-146.67;27.67;75072.94;5083267;28;62848;-79
2022/07/08 10:20:22;;;;;;;;;4.75;3.50;;;;;-146.67;27.33;75048.97;5064730;28;61975;-79
2022/07/08 10:22:52;;;;;;;;;7.75;3.00;;;;;-146.67;27.53;75040.97;5063159;28;61957;-79
2022/07/08 10:25:20;;;;;;;;;6.25;3.50;;;;;-146.67;27.54;75027.00;5080941;28;62184;-79
2022/07/08 10:27:46;;;;;;;;;3.00;3.00;;;;;-146.67;27.25;75017.03;5060920;28;62090;-79
2022/07/08 10:30:20;;;;;;;;;4.25;3.25;;;;;-146.67;27.36;75015.03;5064179;28;62093;-77
2022/07/08 10:32:53;;;;;;;;;6.00;3.00;;;;;-146.67;27.05;75005.03;5080552;27;61856;-81
2022/07/08 10:35:22;;;;;;;;;2.50;2.50;;;;;-146.67;27.13;74999.06;5082486;28;61936;-83
2022/07/08 10:37:49;;;;;;;;;1.75;1.75;;;;;-146.67;27.19;74975.09;5062300;28;61929;-81
2022/07/08 10:40:47;;;;;;;;;2.25;1.75;;;;;-146.67;27.16;74965.09;5064317;28;62072;-80
2022/07/08 10:43:19;;;;;;;;;1.50;1.00;;;;;-146.67;26.65;74949.13;5080058;27;62133;-81
2022/07/08 10:45:59;;;;;;;;;2.00;2.00;;;;;-146.67;26.73;74943.16;5062933;28;63849;-82
2022/07/08 10:48:40;;;;;;;;;1.75;1.50;;;;;-146.67;26.74;74947.13;5080302;28;62500;-80
2022/07/08 10:51:05;;;;;;;;;2.00;1.00;;;;;-146.67;26.42;74929.16;5065029;28;61720;-79
2022/07/08 10:53:57;;;;;;;;;3.00;2.75;;;;;-146.67;26.54;74933.16;5082673;28;61832;-79
2022/07/08 10:56:48;;;;;;;;;1.00;1.00;;;;;-146.67;26.31;74925.19;5079764;28;62188;-78
2022/07/08 10:59:33;;;;;;;;;1.00;1.00;;;;;-146.67;25.79;74905.22;5080737;28;61696;-77
2022/07/08 11:02:11;;;;;;;;;0.75;0.75;;;;;-146.67;25.96;74887.25;5062933;28;61786;-78
2022/07/08 11:04:37;;;;;;;;;1.00;1.00;;;;;-146.67;25.93;74855.28;5058092;28;62080;-77
2022/07/08 11:07:20;;;;;;;;;1.00;1.00;;;;;-146.67;26.07;74833.31;5080109;28;61949;-79
2022/07/08 11:10:02;;;;;;;;;2.75;1.00;;;;;-146.67;25.66;74825.34;5080451;27;62507;-78
2022/07/08 11:12:46;;;;;;;;;2.00;1.00;;;;;-146.67;25.97;74819.34;5067044;27;61864;-80
2022/07/08 11:15:17;;;;;;;;;2.25;1.50;;;;;-146.67;25.92;74807.38;5082120;27;61873;-80
2022/07/08 11:17:46;;;;;;;;;1.75;0.75;;;;;-146.67;25.81;74793.41;5063565;28;62538;-78
2022/07/08 11:20:18;;;;;;;;;2.00;1.00;;;;;-146.67;26.01;74783.41;5063869;28;62099;-77
2022/07/08 11:22:44;;;;;;;;;1.00;1.00;;;;;-146.67;25.96;74769.44;5081753;27;62109;-78
2022/07/08 11:25:13;;;;;;;;;1.00;1.00;;;;;-146.67;25.70;74767.44;5063855;27;61859;-78
2022/07/08 11:27:38;;;;;;;;;1.00;1.00;;;;;-146.67;25.45;74745.47;5081073;28;63258;-79
2022/07/08 11:30:10;;;;;;;;;1.50;1.50;;;;;-146.67;25.53;74709.53;5062881;28;62135;-78
2022/07/08 11:32:36;;;;;;;;;0.67;0.67;;;;;-146.67;25.28;74681.59;5063221;28;62418;-78
2022/07/08 11:35:02;;;;;;;;;1.00;0.67;;;;;-146.67;25.26;74659.63;5081585;28;62983;-77
2022/07/08 11:37:32;;;;;;;;;0.67;0.67;;;;;-146.67;24.71;74647.66;5077240;28;62155;-77
2022/07/08 11:39:57;;;;;;;;;1.00;1.00;;;;;-146.67;24.79;74627.69;5080942;28;62003;-80
2022/07/08 11:42:23;;;;;;;;;0.67;0.67;;;;;-146.67;24.36;74615.72;5061355;28;62469;-78
2022/07/08 11:44:48;;;;;;;;;0.67;0.00;;;;;-146.67;24.71;74613.72;5080548;27;61801;-78